Time;durP1;ratioP1;P1;durP2;ratioP2;P2;SDS_P1;SDS_P2;PMS_P1;PMS_P2;Temp;Humidity;BMP_temperature;BMP_pressure;BME280_temperature;BME280_humidity;BME280_pressure;Samples;Min_cycle;Max_cycle;Signal;HPM_P1;HPM_P2
2021/04/10 00:02:04;;;;;;;1.67;0.90;;;20.80;41.70;;;;;;5007792;28;20428;-70
2021/04/10 00:04:30;;;;;;;2.38;1.30;;;20.80;41.70;;;;;;5007625;28;20421;-70
2021/04/10 00:06:56;;;;;;;1.50;1.00;;;20.90;41.80;;;;;;5006395;28;20467;-70
2021/04/10 00:09:22;;;;;;;3.05;1.10;;;20.80;41.80;;;;;;5007418;28;20424;-68
2021/04/10 00:11:49;;;;;;;2.00;1.45;;;20.80;41.70;;;;;;5008018;28;20418;-68
2021/04/10 00:14:16;;;;;;;1.50;0.90;;;20.80;41.80;;;;;;5006681;28;20946;-72
2021/04/10 00:16:42;;;;;;;1.38;1.10;;;20.90;41.90;;;;;;5006472;28;20589;-69
2021/04/10 00:19:08;;;;;;;2.17;1.30;;;20.90;41.80;;;;;;5008292;28;20408;-69
2021/04/10 00:21:34;;;;;;;2.20;0.90;;;20.90;41.80;;;;;;5006865;28;20470;-70
2021/04/10 00:24:00;;;;;;;2.20;1.30;;;20.90;41.90;;;;;;5000632;28;20433;-71
2021/04/10 00:26:26;;;;;;;3.40;1.00;;;20.90;41.90;;;;;;5019293;28;20429;-70
2021/04/10 00:28:53;;;;;;;2.70;1.30;;;20.80;41.80;;;;;;5007995;28;20419;-69
2021/04/10 00:31:20;;;;;;;2.00;1.08;;;20.80;41.80;;;;;;5004154;28;20418;-69
2021/04/10 00:33:47;;;;;;;1.92;0.80;;;20.90;42.00;;;;;;5005994;28;20410;-69
2021/04/10 00:36:13;;;;;;;3.13;1.10;;;20.90;41.90;;;;;;5006654;28;20427;-72
2021/04/10 00:38:39;;;;;;;1.00;0.88;;;20.90;41.90;;;;;;5004651;28;20416;-73
2021/04/10 00:41:06;;;;;;;2.10;1.10;;;20.90;41.90;;;;;;5007535;28;20420;-72
2021/04/10 00:43:32;;;;;;;1.60;0.90;;;20.90;41.80;;;;;;5006889;28;20428;-70
2021/04/10 00:45:59;;;;;;;1.23;1.00;;;20.90;41.80;;;;;;5006612;28;20421;-69
2021/04/10 00:48:25;;;;;;;1.60;1.00;;;20.90;41.80;;;;;;5007210;28;20495;-68
2021/04/10 00:50:52;;;;;;;1.05;1.05;;;20.90;41.70;;;;;;5004622;28;20429;-70
2021/04/10 00:53:19;;;;;;;1.60;1.20;;;20.90;41.80;;;;;;5005402;28;20422;-72
2021/04/10 00:55:46;;;;;;;1.20;0.80;;;20.90;41.70;;;;;;5010910;28;20425;-69
2021/04/10 00:58:12;;;;;;;1.30;0.90;;;20.90;42.00;;;;;;5001333;28;20409;-68
2021/04/10 01:00:39;;;;;;;2.30;1.13;;;20.90;41.90;;;;;;5008538;28;20407;-73
2021/04/10 01:03:06;;;;;;;1.10;1.00;;;20.90;41.90;;;;;;5008187;28;20408;-70
2021/04/10 01:05:32;;;;;;;3.47;1.00;;;20.90;41.90;;;;;;5013985;28;20418;-68
2021/04/10 01:07:58;;;;;;;1.80;0.90;;;20.90;42.00;;;;;;5004738;28;21476;-69
2021/04/10 01:10:25;;;;;;;1.45;1.02;;;20.80;41.90;;;;;;5002803;28;20473;-69
2021/04/10 01:12:59;;;;;;;1.25;1.15;;;20.80;41.90;;;;;;5008293;28;20415;-68
2021/04/10 01:15:29;;;;;;;0.98;0.90;;;20.80;41.90;;;;;;5005101;28;20747;-69
2021/04/10 01:17:56;;;;;;;2.20;1.00;;;20.80;41.90;;;;;;5005287;28;20538;-69
2021/04/10 01:20:46;;;;;;;1.20;0.90;;;20.80;42.00;;;;;;5006521;28;20415;-70
2021/04/10 01:23:42;;;;;;;2.50;1.20;;;20.80;42.10;;;;;;5005140;28;20441;-69
2021/04/10 01:26:17;;;;;;;1.70;1.08;;;20.80;42.00;;;;;;5005878;28;21167;-70
2021/04/10 01:28:55;;;;;;;1.25;0.80;;;20.80;42.00;;;;;;4993683;28;20434;-71
2021/04/10 01:31:24;;;;;;;1.35;0.80;;;20.80;41.80;;;;;;5000924;28;20413;-72
2021/04/10 01:33:51;;;;;;;1.67;1.10;;;20.90;41.90;;;;;;5012886;28;20504;-71
2021/04/10 01:36:19;;;;;;;1.70;1.00;;;20.90;41.90;;;;;;5011085;28;20401;-69
2021/04/10 01:38:47;;;;;;;2.35;1.13;;;20.90;41.90;;;;;;5001576;28;20425;-70
2021/04/10 01:41:13;;;;;;;2.03;0.90;;;20.90;41.90;;;;;;5011629;28;20426;-68
2021/04/10 01:43:39;;;;;;;1.63;0.98;;;20.90;41.80;;;;;;5006984;28;21152;-70
2021/04/10 01:46:06;;;;;;;2.08;0.90;;;20.90;41.90;;;;;;4994659;28;20428;-69
2021/04/10 01:48:32;;;;;;;1.38;0.90;;;20.90;41.90;;;;;;5013470;28;21166;-69
2021/04/10 01:50:59;;;;;;;1.35;1.00;;;20.90;41.90;;;;;;5010294;28;21171;-69
2021/04/10 01:53:25;;;;;;;1.60;0.90;;;20.90;42.00;;;;;;5012062;28;20413;-70
2021/04/10 01:55:51;;;;;;;1.90;0.90;;;20.80;42.00;;;;;;5003904;28;20897;-71
2021/04/10 01:58:18;;;;;;;1.40;0.80;;;20.80;42.00;;;;;;5000229;28;20413;-69
2021/04/10 02:00:44;;;;;;;1.00;0.90;;;20.80;42.10;;;;;;5001786;28;20480;-70
2021/04/10 02:03:12;;;;;;;2.05;0.90;;;20.80;42.00;;;;;;4999714;28;20419;-70
2021/04/10 02:05:38;;;;;;;1.13;1.00;;;20.80;42.00;;;;;;5009113;28;20951;-70
2021/04/10 02:08:05;;;;;;;0.80;0.80;;;20.80;42.00;;;;;;4996541;28;20426;-71
2021/04/10 02:10:31;;;;;;;2.67;0.90;;;20.80;42.00;;;;;;5003100;28;20417;-69
2021/04/10 02:12:57;;;;;;;2.00;0.73;;;20.80;42.70;;;;;;5025606;28;20420;-71
2021/04/10 02:15:23;;;;;;;1.23;0.82;;;20.80;42.00;;;;;;4988709;28;20497;-70
2021/04/10 02:17:49;;;;;;;1.50;1.00;;;20.70;42.00;;;;;;5008818;28;20413;-70
2021/04/10 02:20:16;;;;;;;1.85;0.90;;;20.80;42.00;;;;;;5007574;28;20423;-70
2021/04/10 02:22:43;;;;;;;1.40;0.90;;;20.80;42.00;;;;;;5004850;28;20425;-68
2021/04/10 02:25:10;;;;;;;1.15;0.90;;;20.80;42.00;;;;;;5012609;28;20444;-69
2021/04/10 02:27:36;;;;;;;0.70;0.70;;;20.80;42.00;;;;;;4991977;28;21475;-68
2021/04/10 02:30:03;;;;;;;1.85;1.00;;;20.80;42.00;;;;;;5007475;28;20455;-68
2021/04/10 02:32:31;;;;;;;2.97;1.10;;;20.80;42.00;;;;;;5005188;28;20419;-70
2021/04/10 02:35:01;;;;;;;2.70;1.10;;;20.80;41.90;;;;;;5004901;28;20428;-70
2021/04/10 02:37:28;;;;;;;2.70;1.05;;;20.80;42.00;;;;;;5008596;28;20506;-70
2021/04/10 02:39:54;;;;;;;1.50;1.07;;;20.80;42.00;;;;;;5007810;28;20472;-69
2021/04/10 02:42:20;;;;;;;1.65;0.77;;;20.80;42.00;;;;;;5012097;28;20411;-68
2021/04/10 02:44:48;;;;;;;2.17;0.88;;;20.70;41.90;;;;;;5002232;28;20430;-69
2021/04/10 02:47:15;;;;;;;2.50;0.83;;;20.80;42.10;;;;;;5017310;28;20415;-70
2021/04/10 02:49:42;;;;;;;1.42;0.90;;;20.80;42.10;;;;;;5012104;28;20492;-68
2021/04/10 02:52:08;;;;;;;1.70;0.90;;;20.80;42.20;;;;;;5002606;28;20415;-72
2021/04/10 02:54:37;;;;;;;1.40;0.90;;;20.80;42.00;;;;;;5010941;28;20415;-71
2021/04/10 02:57:06;;;;;;;1.70;0.80;;;20.80;42.00;;;;;;5008049;28;20411;-69
2021/04/10 02:59:32;;;;;;;2.85;1.02;;;20.80;42.00;;;;;;5007273;28;20399;-68
2021/04/10 03:01:59;;;;;;;1.10;0.80;;;20.80;42.00;;;;;;5012309;28;20425;-70
2021/04/10 03:04:25;;;;;;;1.43;1.07;;;20.80;42.10;;;;;;5006745;28;20432;-71
2021/04/10 03:06:51;;;;;;;2.80;1.17;;;20.80;42.00;;;;;;5012887;28;20393;-69
2021/04/10 03:09:17;;;;;;;1.55;0.93;;;20.70;41.90;;;;;;5009256;28;20410;-70
2021/04/10 03:11:44;;;;;;;1.45;1.00;;;20.80;42.00;;;;;;5008974;28;20411;-71
2021/04/10 03:14:11;;;;;;;1.58;0.88;;;20.80;42.10;;;;;;5009440;28;20421;-69
2021/04/10 03:16:37;;;;;;;1.08;0.80;;;20.80;42.10;;;;;;5012381;28;20451;-69
2021/04/10 03:19:03;;;;;;;1.00;0.70;;;20.80;42.00;;;;;;5002516;28;20395;-68
2021/04/10 03:21:30;;;;;;;1.23;0.90;;;20.80;42.00;;;;;;5009828;28;20421;-69
2021/04/10 03:23:56;;;;;;;2.00;0.90;;;20.80;42.00;;;;;;5007065;28;20427;-70
2021/04/10 03:26:22;;;;;;;1.60;0.80;;;20.80;41.80;;;;;;5004023;28;20421;-69
2021/04/10 03:28:49;;;;;;;2.03;1.07;;;20.80;41.90;;;;;;5007022;28;20886;-69
2021/04/10 03:31:15;;;;;;;2.50;0.80;;;20.80;41.90;;;;;;5006424;28;20823;-72
2021/04/10 03:33:41;;;;;;;1.52;1.10;;;20.80;42.00;;;;;;5024658;28;21198;-71
2021/04/10 03:36:08;;;;;;;1.60;0.70;;;20.70;42.00;;;;;;5033242;28;20421;-72
2021/04/10 03:38:34;;;;;;;1.10;0.70;;;20.80;42.00;;;;;;5038429;28;20406;-69
2021/04/10 03:41:01;;;;;;;2.67;1.00;;;20.80;42.10;;;;;;5010992;28;20413;-68
2021/04/10 03:43:27;;;;;;;1.00;0.90;;;20.70;42.10;;;;;;5002583;28;20416;-70
2021/04/10 03:45:54;;;;;;;1.00;0.60;;;20.70;42.00;;;;;;5000626;28;20416;-69
2021/04/10 03:48:20;;;;;;;2.15;0.82;;;20.70;42.90;;;;;;4995932;28;20489;-68
2021/04/10 03:50:46;;;;;;;1.30;0.90;;;20.70;42.10;;;;;;5001756;28;20478;-68
2021/04/10 03:53:12;;;;;;;1.90;0.95;;;20.80;42.00;;;;;;4998562;28;20425;-69
2021/04/10 03:55:38;;;;;;;1.77;0.70;;;20.80;42.00;;;;;;4989510;28;20916;-71
2021/04/10 03:58:04;;;;;;;1.50;0.88;;;20.80;42.10;;;;;;4989123;28;20523;-69
2021/04/10 04:00:31;;;;;;;2.00;0.90;;;20.80;42.80;;;;;;4976347;28;20409;-69
2021/04/10 04:02:58;;;;;;;1.52;1.10;;;20.80;42.00;;;;;;5005181;28;20426;-69
2021/04/10 04:05:24;;;;;;;1.00;0.90;;;20.80;42.00;;;;;;5022476;28;21543;-70
2021/04/10 04:07:50;;;;;;;0.80;0.80;;;20.80;42.20;;;;;;4998930;28;20500;-70
2021/04/10 04:10:17;;;;;;;1.30;0.80;;;20.70;42.00;;;;;;5012259;28;20958;-69
2021/04/10 04:12:43;;;;;;;1.30;0.80;;;20.70;42.10;;;;;;5009214;28;20418;-68
2021/04/10 04:15:09;;;;;;;1.70;1.00;;;20.70;42.20;;;;;;5008652;28;20421;-70
2021/04/10 04:17:35;;;;;;;0.70;0.68;;;20.70;42.10;;;;;;5006543;28;20844;-68
2021/04/10 04:20:03;;;;;;;2.20;0.80;;;20.70;42.10;;;;;;5008085;28;20417;-70
2021/04/10 04:22:29;;;;;;;1.30;0.90;;;20.70;42.10;;;;;;5005870;28;20431;-69
2021/04/10 04:24:55;;;;;;;0.80;0.80;;;20.70;42.10;;;;;;5004273;28;20416;-70
2021/04/10 04:27:21;;;;;;;1.10;1.00;;;20.70;42.10;;;;;;5002936;28;20435;-70
2021/04/10 04:29:47;;;;;;;1.10;0.73;;;20.70;42.00;;;;;;4991626;28;20407;-73
2021/04/10 04:32:14;;;;;;;1.10;0.73;;;20.80;42.10;;;;;;5022255;28;20481;-72
2021/04/10 04:34:40;;;;;;;1.92;1.17;;;20.80;42.10;;;;;;5002502;28;20415;-71
2021/04/10 04:37:10;;;;;;;3.80;1.02;;;20.70;42.00;;;;;;5007346;28;20916;-69
2021/04/10 04:39:36;;;;;;;0.80;0.80;;;20.70;42.20;;;;;;5004941;28;20417;-71
2021/04/10 04:42:02;;;;;;;2.50;1.10;;;20.70;42.20;;;;;;5021486;28;20421;-72
2021/04/10 04:44:28;;;;;;;1.80;0.82;;;20.70;42.20;;;;;;5026915;28;20413;-72
2021/04/10 04:46:55;;;;;;;1.40;1.00;;;20.70;41.70;;;;;;5015741;28;20416;-72
2021/04/10 04:49:21;;;;;;;1.50;0.90;;;20.60;42.20;;;;;;5041854;28;20968;-70
2021/04/10 04:51:47;;;;;;;1.20;0.95;;;20.60;42.10;;;;;;5014864;28;20524;-69
2021/04/10 04:54:14;;;;;;;1.83;0.85;;;20.70;42.10;;;;;;5003332;28;20420;-69
2021/04/10 04:56:40;;;;;;;1.60;0.70;;;20.70;42.20;;;;;;4993671;28;20413;-70
2021/04/10 04:59:06;;;;;;;1.45;1.10;;;20.70;42.20;;;;;;4998165;28;20412;-68
2021/04/10 05:01:32;;;;;;;0.80;0.70;;;20.70;42.20;;;;;;4994108;28;20422;-68
2021/04/10 05:03:59;;;;;;;3.10;0.87;;;20.70;42.10;;;;;;4989190;28;20421;-68
2021/04/10 05:06:25;;;;;;;0.70;0.70;;;20.70;42.10;;;;;;4997763;28;20917;-68
2021/04/10 05:08:51;;;;;;;3.00;0.85;;;20.70;42.00;;;;;;5006911;28;20418;-70
2021/04/10 05:11:18;;;;;;;1.77;0.85;;;20.70;42.00;;;;;;5005242;28;20415;-68
2021/04/10 05:13:44;;;;;;;1.50;0.70;;;20.70;42.00;;;;;;5006033;28;20417;-73
2021/04/10 05:16:10;;;;;;;1.07;0.83;;;20.70;42.10;;;;;;5005315;28;20449;-71
2021/04/10 05:18:36;;;;;;;0.80;0.80;;;20.70;42.10;;;;;;5007523;28;20420;-69
2021/04/10 05:21:03;;;;;;;2.40;0.80;;;20.70;42.20;;;;;;5005815;28;20421;-69
2021/04/10 05:23:29;;;;;;;1.65;1.00;;;20.60;42.10;;;;;;5005816;28;20917;-72
2021/04/10 05:25:55;;;;;;;1.70;1.13;;;20.70;42.20;;;;;;5002844;28;20415;-72
2021/04/10 05:28:22;;;;;;;1.80;1.00;;;20.70;42.10;;;;;;5011525;28;20427;-72
2021/04/10 05:30:48;;;;;;;0.80;0.70;;;20.70;42.10;;;;;;5006475;28;21281;-68
2021/04/10 05:33:14;;;;;;;0.65;0.60;;;20.70;42.10;;;;;;5005513;28;20760;-69
2021/04/10 05:35:40;;;;;;;0.95;0.70;;;20.70;42.10;;;;;;5002101;28;20432;-70
2021/04/10 05:38:07;;;;;;;2.88;0.90;;;20.60;42.00;;;;;;5006690;28;20432;-69
2021/04/10 05:40:33;;;;;;;2.05;0.90;;;20.60;42.00;;;;;;5004924;28;20424;-68
2021/04/10 05:42:59;;;;;;;1.75;1.10;;;20.60;42.00;;;;;;5005659;28;20517;-70
2021/04/10 05:45:26;;;;;;;2.10;0.90;;;20.70;42.10;;;;;;5006978;28;20427;-70
2021/04/10 05:47:52;;;;;;;0.85;0.75;;;20.60;42.10;;;;;;5006479;28;20422;-69
2021/04/10 05:50:18;;;;;;;1.50;0.70;;;20.60;42.10;;;;;;5005463;28;20899;-69
2021/04/10 05:52:44;;;;;;;1.52;0.77;;;20.60;42.20;;;;;;5004504;28;20928;-70
2021/04/10 05:55:11;;;;;;;1.10;0.77;;;20.60;42.10;;;;;;5006056;28;20500;-68
2021/04/10 05:57:37;;;;;;;1.58;0.65;;;20.70;42.10;;;;;;4998457;28;20427;-72
2021/04/10 06:00:04;;;;;;;1.80;0.80;;;20.70;42.00;;;;;;5015653;28;20490;-72
2021/04/10 06:02:31;;;;;;;1.10;0.80;;;20.70;42.10;;;;;;5002329;28;20490;-68
2021/04/10 06:04:58;;;;;;;1.63;0.70;;;20.70;42.10;;;;;;5006094;28;20989;-71
2021/04/10 06:07:24;;;;;;;0.82;0.82;;;20.70;42.30;;;;;;5007852;28;21020;-71
2021/04/10 06:09:50;;;;;;;2.15;0.80;;;20.70;42.10;;;;;;5004827;28;21216;-73
2021/04/10 06:12:16;;;;;;;1.00;0.90;;;20.70;42.10;;;;;;5010381;28;21057;-71
2021/04/10 06:14:42;;;;;;;0.90;0.70;;;20.70;42.00;;;;;;5003774;28;20419;-71
2021/04/10 06:17:09;;;;;;;3.33;0.80;;;20.70;41.90;;;;;;4993469;28;20420;-72
2021/04/10 06:19:36;;;;;;;1.30;0.80;;;20.70;41.80;;;;;;5006048;28;20471;-69
2021/04/10 06:22:02;;;;;;;1.80;0.80;;;20.70;42.00;;;;;;5008675;28;20439;-68
2021/04/10 06:24:28;;;;;;;1.20;0.95;;;20.70;42.00;;;;;;5006645;28;20419;-69
2021/04/10 06:26:54;;;;;;;1.30;0.73;;;20.70;41.90;;;;;;5004968;28;20415;-70
2021/04/10 06:29:21;;;;;;;2.25;0.80;;;20.70;41.90;;;;;;5005644;28;20430;-69
2021/04/10 06:31:47;;;;;;;1.60;1.10;;;20.80;41.90;;;;;;5010873;28;20489;-69
2021/04/10 06:34:13;;;;;;;1.48;0.95;;;20.80;41.70;;;;;;5009171;28;20412;-73
2021/04/10 06:36:40;;;;;;;2.20;0.90;;;20.80;41.50;;;;;;5009346;28;20397;-70
2021/04/10 06:39:06;;;;;;;1.30;0.80;;;20.90;41.60;;;;;;5006283;28;20421;-71
2021/04/10 06:41:33;;;;;;;0.90;0.70;;;20.90;41.60;;;;;;5008301;28;20432;-69
2021/04/10 06:44:00;;;;;;;1.55;0.82;;;20.90;41.50;;;;;;5008938;28;20424;-69
2021/04/10 06:46:26;;;;;;;2.55;0.90;;;20.90;41.50;;;;;;5000151;28;21242;-68
2021/04/10 06:48:53;;;;;;;1.05;0.70;;;21.00;41.50;;;;;;5021038;28;21476;-70
2021/04/10 06:51:19;;;;;;;1.50;0.70;;;21.00;41.40;;;;;;5008370;28;20568;-71
2021/04/10 06:53:46;;;;;;;1.75;0.70;;;21.10;41.40;;;;;;5008054;28;20440;-69
2021/04/10 06:56:17;;;;;;;1.80;1.00;;;21.10;41.30;;;;;;5008542;28;20426;-70
2021/04/10 06:58:46;;;;;;;1.40;0.70;;;21.20;41.30;;;;;;4980749;28;20419;-71
2021/04/10 07:01:13;;;;;;;0.82;0.70;;;21.20;41.20;;;;;;5011517;28;20414;-69
2021/04/10 07:03:39;;;;;;;2.40;0.70;;;21.10;41.10;;;;;;5010548;28;20993;-69
2021/04/10 07:06:05;;;;;;;1.20;0.80;;;21.20;41.20;;;;;;5009705;28;20951;-69
2021/04/10 07:08:32;;;;;;;1.83;0.80;;;21.20;41.20;;;;;;5004039;28;20428;-68
2021/04/10 07:10:59;;;;;;;0.80;0.80;;;21.20;41.20;;;;;;5010356;28;20424;-71
2021/04/10 07:13:25;;;;;;;1.67;0.90;;;21.20;41.30;;;;;;5008906;28;20426;-69
2021/04/10 07:15:51;;;;;;;2.30;0.80;;;21.10;41.20;;;;;;5008671;28;20408;-72
2021/04/10 07:18:17;;;;;;;2.10;1.25;;;21.10;41.20;;;;;;5010018;28;20421;-69
2021/04/10 07:20:44;;;;;;;1.67;1.00;;;21.10;41.40;;;;;;5009680;28;20415;-69
2021/04/10 07:23:11;;;;;;;2.95;0.80;;;21.10;41.30;;;;;;5003670;28;20424;-69
2021/04/10 07:25:38;;;;;;;0.90;0.60;;;21.20;41.40;;;;;;4997175;28;20444;-70
2021/04/10 07:28:26;;;;;;;1.90;0.70;;;21.20;41.30;;;;;;5012347;28;20501;-70
2021/04/10 07:30:54;;;;;;;1.20;0.70;;;21.20;41.30;;;;;;5005351;28;20413;-70
2021/04/10 07:33:21;;;;;;;1.80;0.80;;;21.20;41.20;;;;;;5006259;28;20435;-70
2021/04/10 07:35:47;;;;;;;1.17;0.70;;;21.20;41.20;;;;;;5004624;28;20861;-72
2021/04/10 07:38:23;;;;;;;1.05;0.70;;;21.20;41.10;;;;;;5007691;28;20551;-70
2021/04/10 07:40:50;;;;;;;2.67;0.82;;;21.20;41.30;;;;;;5008001;28;20409;-69
2021/04/10 07:43:23;;;;;;;0.75;0.60;;;21.20;41.30;;;;;;5005143;28;20410;-70
2021/04/10 07:45:49;;;;;;;1.33;0.80;;;21.20;41.30;;;;;;5006484;28;20410;-73
2021/04/10 07:48:17;;;;;;;2.00;0.80;;;21.20;41.30;;;;;;5008117;28;20418;-71
2021/04/10 07:50:43;;;;;;;2.72;0.80;;;21.10;41.20;;;;;;5006636;28;20411;-69
2021/04/10 07:53:20;;;;;;;1.15;0.90;;;21.10;41.10;;;;;;5005483;28;21009;-69
2021/04/10 07:55:46;;;;;;;0.80;0.70;;;21.10;41.20;;;;;;5005299;28;20415;-69
2021/04/10 07:58:23;;;;;;;2.72;1.00;;;21.10;41.30;;;;;;4996743;28;20444;-72
2021/04/10 08:00:50;;;;;;;0.80;0.80;;;21.10;41.30;;;;;;5014872;28;20436;-71
2021/04/10 08:03:27;;;;;;;2.10;1.10;;;21.00;41.30;;;;;;4997919;28;21054;-71
2021/04/10 08:05:53;;;;;;;2.25;0.90;;;21.10;41.50;;;;;;5000196;28;20423;-69
2021/04/10 08:08:21;;;;;;;2.92;0.98;;;21.10;41.30;;;;;;5005875;28;20489;-71
2021/04/10 08:10:47;;;;;;;2.90;0.88;;;21.10;41.40;;;;;;5006681;28;20418;-69
2021/04/10 08:13:13;;;;;;;1.90;0.95;;;21.10;41.40;;;;;;5007335;28;20412;-69
2021/04/10 08:15:40;;;;;;;2.17;0.90;;;21.10;41.30;;;;;;5007283;28;20421;-69
2021/04/10 08:18:21;;;;;;;2.00;1.15;;;21.10;41.20;;;;;;5007254;28;21237;-70
2021/04/10 08:20:49;;;;;;;2.80;0.85;;;21.10;41.20;;;;;;5003566;28;20502;-70
2021/04/10 08:23:19;;;;;;;2.00;0.90;;;21.10;41.20;;;;;;5005341;28;20407;-73
2021/04/10 08:25:46;;;;;;;1.52;0.90;;;21.20;41.20;;;;;;5009546;28;20438;-71
2021/04/10 08:28:12;;;;;;;1.50;0.90;;;21.20;41.20;;;;;;4980743;28;20423;-70
2021/04/10 08:30:38;;;;;;;2.00;0.80;;;21.20;41.20;;;;;;4995350;28;20797;-70
2021/04/10 08:33:05;;;;;;;1.80;1.00;;;21.20;41.20;;;;;;5004146;28;21109;-71
2021/04/10 08:35:31;;;;;;;1.43;0.73;;;21.10;41.10;;;;;;5001986;28;20428;-72
2021/04/10 08:37:59;;;;;;;2.88;1.00;;;21.10;41.30;;;;;;5006964;28;21488;-70
2021/04/10 08:40:25;;;;;;;0.90;0.75;;;21.10;41.30;;;;;;5006945;28;20419;-69
2021/04/10 08:42:51;;;;;;;1.70;1.20;;;21.10;41.40;;;;;;5000222;28;20446;-70
2021/04/10 08:45:19;;;;;;;1.40;0.80;;;21.00;41.20;;;;;;4997943;28;20407;-69
2021/04/10 08:47:45;;;;;;;2.00;0.70;;;21.10;41.30;;;;;;5007963;28;20978;-69
2021/04/10 08:50:12;;;;;;;2.30;0.80;;;21.00;41.20;;;;;;5005976;28;20418;-71
2021/04/10 08:52:39;;;;;;;1.33;0.77;;;21.00;41.30;;;;;;5006855;28;20534;-71
2021/04/10 08:55:06;;;;;;;2.70;0.60;;;21.10;41.40;;;;;;5007627;28;20445;-70
2021/04/10 08:57:39;;;;;;;2.50;0.98;;;21.00;41.20;;;;;;5005942;28;20467;-71
2021/04/10 09:00:17;;;;;;;2.88;0.90;;;21.00;41.30;;;;;;5006793;28;20467;-69
2021/04/10 09:02:49;;;;;;;1.70;0.70;;;21.10;41.40;;;;;;5005563;28;20413;-73
2021/04/10 09:05:16;;;;;;;0.70;0.70;;;21.10;41.40;;;;;;4987623;28;20421;-71
2021/04/10 09:08:04;;;;;;;1.48;0.80;;;21.10;41.20;;;;;;5007086;28;20477;-71
2021/04/10 09:10:54;;;;;;;1.70;1.00;;;21.10;41.10;;;;;;5001060;28;20474;-69
2021/04/10 09:13:43;;;;;;;1.10;0.68;;;21.10;41.00;;;;;;5001411;28;20415;-69
2021/04/10 09:16:37;;;;;;;1.10;0.90;;;21.10;41.20;;;;;;5005997;28;20916;-71
2021/04/10 09:19:06;;;;;;;2.10;0.80;;;21.10;41.20;;;;;;5007160;28;20403;-74
2021/04/10 09:21:41;;;;;;;0.80;0.80;;;21.10;41.10;;;;;;5007798;28;20478;-69
2021/04/10 09:24:28;;;;;;;1.33;1.00;;;21.10;41.20;;;;;;4972695;28;20434;-70
2021/04/10 09:26:58;;;;;;;2.70;0.90;;;21.10;41.10;;;;;;4995656;28;20454;-72
2021/04/10 09:29:25;;;;;;;2.10;0.80;;;21.10;41.20;;;;;;5006594;28;20421;-72
2021/04/10 09:31:58;;;;;;;2.00;0.75;;;21.10;41.30;;;;;;5005243;28;20415;-69
2021/04/10 09:34:50;;;;;;;2.70;0.80;;;21.10;41.20;;;;;;5006105;28;20419;-70
2021/04/10 09:37:58;;;;;;;1.10;0.80;;;21.10;41.30;;;;;;5005281;28;20415;-72
2021/04/10 09:40:48;;;;;;;1.50;1.20;;;21.00;41.20;;;;;;5003485;28;20412;-74
2021/04/10 09:43:14;;;;;;;0.80;0.70;;;21.00;42.10;;;;;;5006904;28;20419;-71
2021/04/10 09:45:41;;;;;;;0.70;0.70;;;21.00;41.30;;;;;;5004956;28;20833;-72
2021/04/10 09:48:19;;;;;;;1.15;0.80;;;21.00;41.30;;;;;;5007030;28;20415;-72
2021/04/10 09:50:46;;;;;;;2.30;0.70;;;21.10;41.30;;;;;;5003280;28;20418;-72
2021/04/10 09:53:13;;;;;;;3.50;0.80;;;21.10;41.30;;;;;;5003900;28;20423;-69
2021/04/10 09:55:40;;;;;;;2.00;0.70;;;21.00;41.20;;;;;;5006550;28;21248;-70
2021/04/10 09:58:07;;;;;;;1.80;0.80;;;21.10;41.10;;;;;;5003384;28;20415;-72
2021/04/10 10:00:34;;;;;;;1.60;0.80;;;21.10;41.20;;;;;;5012392;28;21218;-73
2021/04/10 10:03:02;;;;;;;3.30;0.90;;;21.10;41.20;;;;;;5004910;28;21484;-69
2021/04/10 10:05:30;;;;;;;0.90;0.80;;;21.10;41.10;;;;;;5006762;28;20431;-68
2021/04/10 10:08:00;;;;;;;1.90;0.88;;;21.20;41.20;;;;;;5004940;28;20426;-72
2021/04/10 10:10:30;;;;;;;0.90;0.70;;;21.20;41.00;;;;;;5004207;28;20421;-71
2021/04/10 10:13:01;;;;;;;2.10;0.90;;;21.10;41.20;;;;;;5005606;28;20446;-69
2021/04/10 10:15:28;;;;;;;0.63;0.60;;;21.10;41.10;;;;;;5010305;28;20426;-71
2021/04/10 10:17:54;;;;;;;2.03;0.90;;;21.10;41.20;;;;;;5005182;28;20460;-70
2021/04/10 10:20:20;;;;;;;0.82;0.80;;;21.10;40.80;;;;;;5006622;28;20431;-69
2021/04/10 10:22:46;;;;;;;1.08;0.60;;;21.10;41.10;;;;;;4996106;28;20975;-69
2021/04/10 10:25:13;;;;;;;2.20;0.70;;;21.10;41.10;;;;;;5006304;28;20411;-69
2021/04/10 10:27:40;;;;;;;0.88;0.60;;;21.10;41.20;;;;;;4994626;28;20431;-71
2021/04/10 10:30:13;;;;;;;1.20;0.90;;;21.10;41.20;;;;;;5012608;28;20424;-70
2021/04/10 10:32:39;;;;;;;0.77;0.70;;;21.10;41.20;;;;;;5001569;28;20793;-70
2021/04/10 10:35:07;;;;;;;1.00;0.70;;;21.10;41.20;;;;;;5006367;28;20410;-70
2021/04/10 10:37:33;;;;;;;1.10;0.70;;;21.10;41.00;;;;;;5006870;28;21607;-69
2021/04/10 10:39:59;;;;;;;2.28;0.65;;;21.10;40.90;;;;;;5005476;28;20421;-71
2021/04/10 10:42:25;;;;;;;1.80;0.80;;;21.10;41.20;;;;;;5002425;28;20415;-70
2021/04/10 10:44:52;;;;;;;1.90;1.00;;;21.10;41.10;;;;;;5003886;28;20473;-71
2021/04/10 10:47:19;;;;;;;2.05;0.70;;;21.10;41.00;;;;;;5003950;28;20422;-69
2021/04/10 10:49:48;;;;;;;1.40;0.70;;;21.10;41.00;;;;;;5003232;28;20427;-70
2021/04/10 10:52:15;;;;;;;0.70;0.70;;;21.10;41.00;;;;;;5004813;28;20418;-70
2021/04/10 10:54:42;;;;;;;1.50;0.80;;;21.10;41.10;;;;;;5001211;28;20425;-71
2021/04/10 10:57:08;;;;;;;0.80;0.60;;;21.00;40.90;;;;;;5008993;28;20429;-71
2021/04/10 10:59:34;;;;;;;0.70;0.60;;;21.00;41.10;;;;;;5007404;28;20919;-70
2021/04/10 11:02:01;;;;;;;1.08;0.70;;;21.00;40.90;;;;;;5009113;28;20428;-71
2021/04/10 11:04:28;;;;;;;1.80;0.70;;;21.00;41.20;;;;;;5006669;28;20931;-68
2021/04/10 11:06:57;;;;;;;1.40;0.70;;;21.00;41.10;;;;;;5009074;28;20407;-71
2021/04/10 11:09:24;;;;;;;0.47;0.47;;;21.10;41.10;;;;;;5005040;28;20547;-70
2021/04/10 11:11:52;;;;;;;1.40;0.60;;;21.10;41.10;;;;;;5009607;28;20418;-71
2021/04/10 11:14:18;;;;;;;0.65;0.65;;;21.10;41.10;;;;;;4994475;28;20435;-70
2021/04/10 11:16:45;;;;;;;0.73;0.70;;;21.20;41.00;;;;;;5008714;28;20442;-71
2021/04/10 11:19:11;;;;;;;1.77;0.70;;;21.20;40.80;;;;;;5005402;28;20806;-72
2021/04/10 11:21:38;;;;;;;1.00;0.60;;;21.10;41.10;;;;;;5008421;28;20452;-72
2021/04/10 11:24:10;;;;;;;0.83;0.70;;;21.10;41.10;;;;;;5005216;28;20420;-71
2021/04/10 11:26:51;;;;;;;2.10;0.60;;;21.10;41.10;;;;;;5008015;28;20499;-70
2021/04/10 11:29:26;;;;;;;0.98;0.70;;;21.10;41.10;;;;;;5003490;28;20415;-71
2021/04/10 11:32:10;;;;;;;0.70;0.60;;;21.10;41.00;;;;;;5004116;28;20417;-71
2021/04/10 11:34:37;;;;;;;1.75;0.63;;;21.00;40.30;;;;;;5007343;28;21662;-70
2021/04/10 11:37:05;;;;;;;1.55;0.75;;;21.00;41.00;;;;;;5010018;28;20416;-71
2021/04/10 11:39:31;;;;;;;2.20;0.80;;;21.00;40.90;;;;;;5008235;28;20420;-70
2021/04/10 11:41:57;;;;;;;0.60;0.60;;;21.00;40.80;;;;;;5010561;28;20407;-75
2021/04/10 11:44:24;;;;;;;1.30;0.90;;;21.00;40.90;;;;;;5033016;28;20420;-73
2021/04/10 11:46:58;;;;;;;1.48;0.60;;;21.10;40.80;;;;;;5029630;28;20417;-72
2021/04/10 11:49:25;;;;;;;0.80;0.60;;;21.10;40.80;;;;;;5014134;28;21007;-70
2021/04/10 11:51:51;;;;;;;0.85;0.60;;;21.10;40.60;;;;;;5014963;28;21604;-69
2021/04/10 11:54:31;;;;;;;2.20;0.70;;;21.10;40.90;;;;;;5004016;28;20416;-70
2021/04/10 11:56:57;;;;;;;1.30;0.60;;;21.10;40.80;;;;;;4997593;28;20421;-69
2021/04/10 11:59:30;;;;;;;2.80;0.70;;;21.20;40.90;;;;;;4989567;28;20429;-69
2021/04/10 12:02:00;;;;;;;1.10;0.60;;;21.10;40.70;;;;;;4994687;28;20457;-70
2021/04/10 12:04:26;;;;;;;3.85;0.60;;;21.10;40.90;;;;;;4992648;28;20539;-72
2021/04/10 12:07:03;;;;;;;1.88;0.70;;;21.10;40.90;;;;;;4998789;28;20417;-71
2021/04/10 12:09:29;;;;;;;1.40;0.70;;;21.10;40.80;;;;;;4986491;28;20421;-70
2021/04/10 12:11:59;;;;;;;2.10;0.60;;;21.10;40.60;;;;;;5003245;28;20430;-71
2021/04/10 12:14:25;;;;;;;1.10;0.80;;;21.10;40.60;;;;;;5005454;28;20472;-71
2021/04/10 12:16:51;;;;;;;1.10;0.60;;;21.10;40.60;;;;;;5008064;28;20419;-71
2021/04/10 12:19:18;;;;;;;1.57;0.60;;;21.00;40.40;;;;;;5001667;28;20430;-70
2021/04/10 12:21:44;;;;;;;1.10;0.70;;;21.00;40.50;;;;;;5008491;28;20418;-71
2021/04/10 12:24:10;;;;;;;0.60;0.60;;;21.00;40.60;;;;;;5005940;28;20405;-71
2021/04/10 12:26:37;;;;;;;0.50;0.50;;;21.00;40.50;;;;;;5009165;28;20909;-70
2021/04/10 12:29:04;;;;;;;1.48;0.90;;;21.00;40.40;;;;;;4961740;28;20421;-71
2021/04/10 12:31:30;;;;;;;1.10;0.90;;;21.00;40.60;;;;;;5016179;28;20551;-72
2021/04/10 12:33:56;;;;;;;1.38;0.70;;;21.00;40.50;;;;;;5006397;28;20419;-72
2021/04/10 12:36:22;;;;;;;0.90;0.70;;;20.90;40.70;;;;;;5003469;28;20443;-73
2021/04/10 12:38:49;;;;;;;1.30;0.70;;;20.90;41.00;;;;;;5015137;28;20423;-71
2021/04/10 12:41:15;;;;;;;0.60;0.60;;;21.00;41.00;;;;;;4997028;28;20415;-71
2021/04/10 12:43:42;;;;;;;1.30;0.60;;;21.00;41.00;;;;;;5007708;28;20515;-69
2021/04/10 12:46:09;;;;;;;0.75;0.50;;;21.00;40.90;;;;;;5003981;28;20442;-69
2021/04/10 12:48:35;;;;;;;0.80;0.60;;;21.10;40.90;;;;;;5001035;28;20987;-71
2021/04/10 12:51:01;;;;;;;1.80;0.60;;;21.10;40.80;;;;;;4999055;28;21035;-70
2021/04/10 12:53:27;;;;;;;1.63;0.60;;;21.10;40.10;;;;;;4989038;28;21173;-72